createdAt,value
2023-05-05T00:02:21.079Z,99396.34
2023-05-05T00:04:47.857Z,99389.66
2023-05-05T00:07:14.584Z,99376.63
2023-05-05T00:09:41.899Z,99353.34
2023-05-05T00:12:08.697Z,99373.38
2023-05-05T00:14:35.496Z,99357.81
2023-05-05T00:17:02.360Z,99371.41
2023-05-05T00:19:29.103Z,99371.41
2023-05-05T00:21:55.829Z,99374.94
2023-05-05T00:24:22.502Z,99373.34
2023-05-05T00:26:49.223Z,99371.63
2023-05-05T00:29:15.920Z,99373.22
2023-05-05T00:31:42.649Z,99384.75
2023-05-05T00:34:09.437Z,99344.94
2023-05-05T00:36:36.145Z,99361.78
2023-05-05T00:39:03.215Z,99353.78
2023-05-05T00:41:30.051Z,99354.75
2023-05-05T00:43:56.749Z,99342.28
2023-05-05T00:46:27.119Z,99364.50
2023-05-05T00:48:54.833Z,99349.31
2023-05-05T00:51:22.341Z,99344.94
2023-05-05T00:53:49.415Z,99362.91
2023-05-05T00:56:17.595Z,99326.97
2023-05-05T00:58:44.732Z,99372.34
2023-05-05T01:01:12.056Z,99366.66
2023-05-05T01:03:40.153Z,99330.97
2023-05-05T01:06:33.936Z,99355.97
2023-05-05T01:09:19.639Z,99353.88
2023-05-05T01:12:15.851Z,99350.47
2023-05-05T01:14:57.034Z,99335.44
2023-05-05T01:17:33.174Z,99305.09
2023-05-05T01:20:13.622Z,99357.66
2023-05-05T01:22:46.715Z,99334.34
2023-05-05T01:25:56.805Z,99346.50
2023-05-05T01:28:43.643Z,99348.31
2023-05-05T01:31:41.989Z,99352.66
2023-05-05T01:34:12.125Z,99350.56
2023-05-05T01:36:42.468Z,99348.88
2023-05-05T01:39:14.872Z,99335.50
2023-05-05T01:41:48.221Z,99338.28
2023-05-05T01:44:16.877Z,99310.59
2023-05-05T01:46:43.670Z,99344.47
2023-05-05T01:49:12.320Z,99343.19
2023-05-05T01:51:40.619Z,99334.19
2023-05-05T01:54:09.422Z,99343.38
2023-05-05T01:56:40.228Z,99327.84
2023-05-05T01:59:08.031Z,99345.03
2023-05-05T02:01:39.533Z,99331.19
2023-05-05T02:04:10.011Z,99334.06
2023-05-05T02:06:38.487Z,99329.09
2023-05-05T02:09:06.770Z,99342.69
2023-05-05T02:11:33.760Z,99350.69
2023-05-05T02:14:02.329Z,99360.88
2023-05-05T02:16:31.305Z,99360.25
2023-05-05T02:19:01.508Z,99335.09
2023-05-05T02:21:28.690Z,99347.56
2023-05-05T02:23:55.817Z,99340.53
2023-05-05T02:26:24.435Z,99347.69
2023-05-05T02:29:07.828Z,99347.19
2023-05-05T02:31:47.898Z,99356.50
2023-05-05T02:34:28.164Z,99351.25
2023-05-05T02:36:58.034Z,99363.28
2023-05-05T02:39:47.387Z,99358.28
2023-05-05T02:42:18.775Z,99357.53
2023-05-05T02:44:46.021Z,99340.84
2023-05-05T02:47:12.811Z,99331.88
2023-05-05T02:49:39.575Z,99348.00
2023-05-05T02:52:06.495Z,99341.78
2023-05-05T02:54:33.806Z,99350.59
2023-05-05T02:57:00.954Z,99357.41
2023-05-05T02:59:27.943Z,99362.22
2023-05-05T03:02:10.138Z,99341.91
2023-05-05T03:04:45.958Z,99361.34
2023-05-05T03:07:20.301Z,99356.59
2023-05-05T03:10:08.851Z,99366.91
2023-05-05T03:12:49.756Z,99357.31
2023-05-05T03:15:17.146Z,99357.53
2023-05-05T03:17:44.779Z,99373.50
2023-05-05T03:20:13.725Z,99373.31
2023-05-05T03:22:40.489Z,99370.84
2023-05-05T03:25:07.806Z,99374.25
2023-05-05T03:27:34.503Z,99380.53
2023-05-05T03:30:01.286Z,99358.97
2023-05-05T03:32:28.081Z,99373.44
2023-05-05T03:34:54.971Z,99385.13
2023-05-05T03:37:22.129Z,99386.53
2023-05-05T03:39:48.969Z,99390.16
2023-05-05T03:42:15.739Z,99404.00
2023-05-05T03:44:42.517Z,99398.88
2023-05-05T03:47:09.257Z,99401.53
2023-05-05T03:49:36.012Z,99400.22
2023-05-05T03:52:02.779Z,99394.06
2023-05-05T03:54:29.609Z,99388.97
2023-05-05T03:56:56.441Z,99409.06
2023-05-05T03:59:23.181Z,99391.28
2023-05-05T04:01:50.158Z,99410.22
2023-05-05T04:04:16.997Z,99413.63
2023-05-05T04:06:43.741Z,99406.50
2023-05-05T04:09:12.174Z,99397.25
2023-05-05T04:11:38.873Z,99411.41
2023-05-05T04:14:05.766Z,99416.19
2023-05-05T04:16:32.576Z,99411.59
2023-05-05T04:18:59.463Z,99414.53
2023-05-05T04:21:26.249Z,99423.91
2023-05-05T04:23:53.067Z,99381.91
2023-05-05T04:26:19.762Z,99421.66
2023-05-05T04:28:46.579Z,99412.81
2023-05-05T04:31:13.319Z,99430.06
2023-05-05T04:33:40.811Z,99454.72
2023-05-05T04:36:29.032Z,99384.41
2023-05-05T04:39:02.042Z,99404.72
2023-05-05T04:41:35.360Z,99395.78
2023-05-05T04:44:05.264Z,99394.94
2023-05-05T04:46:35.149Z,99423.50
2023-05-05T04:49:07.329Z,99370.97
2023-05-05T04:51:46.215Z,99362.22
2023-05-05T04:54:19.946Z,99411.34
2023-05-05T04:56:47.368Z,99410.25
2023-05-05T04:59:20.729Z,99425.50
2023-05-05T05:01:47.642Z,99475.28
2023-05-05T05:04:18.657Z,99469.44
2023-05-05T05:06:46.211Z,99430.94
2023-05-05T05:09:13.390Z,99461.13
2023-05-05T05:11:40.265Z,99469.72
2023-05-05T05:14:07.115Z,99447.66
2023-05-05T05:16:33.984Z,99466.50
2023-05-05T05:19:01.819Z,99411.66
2023-05-05T05:21:28.869Z,99434.03
2023-05-05T05:23:55.713Z,99488.09
2023-05-05T05:26:23.398Z,99436.88
2023-05-05T05:28:50.146Z,99470.34
2023-05-05T05:31:16.909Z,99449.81
2023-05-05T05:33:44.050Z,99432.28
2023-05-05T05:36:10.845Z,99457.75
2023-05-05T05:38:37.621Z,99451.44
2023-05-05T05:41:07.900Z,99468.41
2023-05-05T05:43:34.742Z,99452.88
2023-05-05T05:46:01.663Z,99456.56
2023-05-05T05:48:29.549Z,99453.13
2023-05-05T05:50:57.243Z,99456.19
2023-05-05T05:53:24.171Z,99466.53
2023-05-05T05:55:50.939Z,99455.09
2023-05-05T05:58:18.660Z,99469.94
2023-05-05T06:00:45.738Z,99465.56
2023-05-05T06:03:12.778Z,99460.56
2023-05-05T06:05:39.808Z,99466.59
2023-05-05T06:08:06.795Z,99455.44
2023-05-05T06:10:33.898Z,99469.44
2023-05-05T06:13:00.831Z,99466.78
2023-05-05T06:15:27.617Z,99472.75
2023-05-05T06:17:54.447Z,99464.75
2023-05-05T06:20:21.172Z,99475.63
2023-05-05T06:22:48.017Z,99475.63
2023-05-05T06:25:14.836Z,99443.81
2023-05-05T06:27:41.585Z,99454.88
2023-05-05T06:30:09.827Z,99467.47
2023-05-05T06:32:36.851Z,99464.94
2023-05-05T06:35:03.722Z,99469.91
2023-05-05T06:37:30.541Z,99457.16
2023-05-05T06:39:57.390Z,99465.47
2023-05-05T06:42:24.235Z,99464.78
2023-05-05T06:44:51.049Z,99432.25
2023-05-05T06:47:17.831Z,99454.53
2023-05-05T06:49:44.571Z,99457.34
2023-05-05T06:52:11.576Z,99438.28
2023-05-05T06:54:38.311Z,99452.22
2023-05-05T06:57:05.174Z,99461.72
2023-05-05T06:59:32.598Z,99464.25
2023-05-05T07:01:59.713Z,99432.19
2023-05-05T07:04:27.049Z,99426.75
2023-05-05T07:06:55.342Z,99456.66
2023-05-05T07:09:22.141Z,99449.72
2023-05-05T07:11:48.922Z,99420.16
2023-05-05T07:14:15.709Z,99439.56
2023-05-05T07:16:42.518Z,99399.50
2023-05-05T07:19:09.393Z,99446.03
2023-05-05T07:21:36.809Z,99439.03
2023-05-05T07:24:04.064Z,99410.78
2023-05-05T07:26:31.177Z,99423.78
2023-05-05T07:28:59.220Z,99428.38
2023-05-05T07:31:26.742Z,99436.50
2023-05-05T07:33:53.915Z,99431.06
2023-05-05T07:36:20.938Z,99434.78
2023-05-05T07:38:47.763Z,99421.13
2023-05-05T07:41:14.581Z,99401.38
2023-05-05T07:43:44.197Z,99415.91
2023-05-05T07:46:11.565Z,99414.34
2023-05-05T07:48:41.599Z,99406.50
2023-05-05T07:51:09.439Z,99372.72
2023-05-05T07:53:36.433Z,99400.91
2023-05-05T07:56:03.786Z,99371.41
2023-05-05T07:58:30.826Z,99406.16
2023-05-05T08:00:57.690Z,99359.53
2023-05-05T08:03:25.154Z,99393.69
2023-05-05T08:05:54.528Z,99402.78
2023-05-05T08:08:25.085Z,99381.22
2023-05-05T08:10:53.475Z,99405.81
2023-05-05T08:13:20.675Z,99382.56
2023-05-05T08:15:47.814Z,99394.31
2023-05-05T08:18:15.072Z,99363.38
2023-05-05T08:20:41.981Z,99374.38
2023-05-05T08:23:08.766Z,99390.50
2023-05-05T08:25:35.554Z,99382.81
2023-05-05T08:28:02.270Z,99382.63
2023-05-05T08:30:29.139Z,99376.78
2023-05-05T08:32:56.715Z,99369.03
2023-05-05T08:35:23.677Z,99352.06
2023-05-05T08:37:53.471Z,99362.34
2023-05-05T08:40:22.964Z,99373.06
2023-05-05T08:42:49.824Z,99348.03
2023-05-05T08:45:17.044Z,99366.50
2023-05-05T08:47:44.480Z,99323.34
2023-05-05T08:50:12.144Z,99362.63
2023-05-05T08:52:41.968Z,99354.28
2023-05-05T08:55:26.716Z,99353.25
2023-05-05T08:57:56.775Z,99333.28
2023-05-05T09:00:24.599Z,99366.31
2023-05-05T09:02:52.059Z,99371.06
2023-05-05T09:05:19.115Z,99360.16
2023-05-05T09:07:47.480Z,99354.28
2023-05-05T09:10:14.830Z,99353.81
2023-05-05T09:12:42.260Z,99305.78
2023-05-05T09:15:14.294Z,99348.06
2023-05-05T09:17:41.907Z,99331.72
2023-05-05T09:20:11.020Z,99301.97
2023-05-05T09:22:46.317Z,99301.63
2023-05-05T09:25:18.213Z,99328.56
2023-05-05T09:27:48.185Z,99320.56
2023-05-05T09:30:24.606Z,99327.22
2023-05-05T09:32:53.354Z,99321.09
2023-05-05T09:35:21.801Z,99325.44
2023-05-05T09:37:48.652Z,99305.69
2023-05-05T09:40:18.168Z,99324.59
2023-05-05T09:42:45.656Z,99326.50
2023-05-05T09:45:18.240Z,99327.19
2023-05-05T09:47:47.040Z,99312.84
2023-05-05T09:50:16.354Z,99320.44
2023-05-05T09:52:43.473Z,99298.31
2023-05-05T09:55:19.651Z,99281.84
2023-05-05T09:57:47.623Z,99292.38
2023-05-05T10:00:14.919Z,99270.50
2023-05-05T10:02:42.162Z,99293.53
2023-05-05T10:05:17.275Z,99297.69
2023-05-05T10:07:46.145Z,99268.84
2023-05-05T10:10:15.133Z,99239.34
2023-05-05T10:12:42.413Z,99298.53
2023-05-05T10:15:10.980Z,99280.59
2023-05-05T10:18:05.339Z,99284.34
2023-05-05T10:20:35.796Z,99300.00
2023-05-05T10:23:03.552Z,99292.72
2023-05-05T10:25:33.266Z,99283.69
2023-05-05T10:28:01.721Z,99281.53
2023-05-05T10:30:32.056Z,99273.75
2023-05-05T10:33:32.167Z,99281.47
2023-05-05T10:36:02.638Z,99272.22
2023-05-05T10:38:33.923Z,99240.00
2023-05-05T10:41:02.400Z,99213.72
2023-05-05T10:43:31.005Z,99271.09
2023-05-05T10:45:59.176Z,99248.94
2023-05-05T10:48:40.795Z,99240.84
2023-05-05T10:51:40.681Z,99258.22
2023-05-05T10:54:43.385Z,99249.63
2023-05-05T10:57:11.347Z,99236.31
2023-05-05T10:59:38.373Z,99250.78
2023-05-05T11:02:21.454Z,99239.09
2023-05-05T11:05:23.814Z,99244.28
2023-05-05T11:07:52.221Z,99223.53
2023-05-05T11:10:21.006Z,99199.38
2023-05-05T11:12:59.461Z,99231.31
2023-05-05T11:15:32.019Z,99233.91
2023-05-05T11:18:01.924Z,99225.56
2023-05-05T11:20:43.690Z,99218.53
2023-05-05T11:23:12.564Z,99215.06
2023-05-05T11:25:41.260Z,99212.56
2023-05-05T11:28:08.550Z,99191.69
2023-05-05T11:30:36.896Z,99150.53
2023-05-05T11:33:31.659Z,99202.31
2023-05-05T11:35:59.557Z,99195.16
2023-05-05T11:38:57.096Z,99193.34
2023-05-05T11:41:34.110Z,99188.94
2023-05-05T11:44:19.894Z,99193.84
2023-05-05T11:46:52.609Z,99181.81
2023-05-05T11:49:30.385Z,99178.75
2023-05-05T11:52:02.267Z,99177.72
2023-05-05T11:54:30.454Z,99145.53
2023-05-05T11:57:02.122Z,99179.66
2023-05-05T11:59:28.898Z,99165.91
2023-05-05T12:01:55.835Z,99171.00
2023-05-05T12:04:22.910Z,99128.16
2023-05-05T12:06:49.916Z,99170.94
2023-05-05T12:09:21.090Z,99160.75
2023-05-05T12:11:58.778Z,99158.78
2023-05-05T12:14:26.008Z,99154.63
2023-05-05T12:16:56.740Z,99157.28
2023-05-05T12:19:25.319Z,99141.88
2023-05-05T12:21:54.348Z,99143.66
2023-05-05T12:24:21.191Z,99093.50
2023-05-05T12:26:48.121Z,99126.03
2023-05-05T12:29:24.178Z,99135.16
2023-05-05T12:31:51.170Z,99135.16
2023-05-05T12:34:18.831Z,99125.84
2023-05-05T12:36:46.126Z,99133.53
2023-05-05T12:39:13.177Z,99118.50
2023-05-05T12:41:40.103Z,99124.63
2023-05-05T12:44:07.299Z,99133.19
2023-05-05T12:46:47.547Z,99129.44
2023-05-05T12:49:14.854Z,99105.09
2023-05-05T12:51:54.314Z,99105.00
2023-05-05T12:54:23.047Z,99105.34
2023-05-05T12:56:49.853Z,99108.22
2023-05-05T12:59:24.055Z,99106.91
2023-05-05T13:01:55.677Z,99074.84
2023-05-05T13:04:24.493Z,99101.38
2023-05-05T13:07:10.153Z,99098.50
2023-05-05T13:09:37.112Z,99066.41
2023-05-05T13:12:04.669Z,99088.25
2023-05-05T13:14:37.862Z,99056.84
2023-05-05T13:17:05.031Z,99081.47
2023-05-05T13:19:31.953Z,99033.38
2023-05-05T13:21:59.122Z,99015.59
2023-05-05T13:24:42.177Z,99054.25
2023-05-05T13:27:13.185Z,99042.03
2023-05-05T13:29:41.742Z,99072.84
2023-05-05T13:32:08.648Z,99033.38
2023-05-05T13:34:35.577Z,99031.72
2023-05-05T13:37:02.346Z,99032.53
2023-05-05T13:39:29.176Z,99055.78
2023-05-05T13:41:56.011Z,99041.66
2023-05-05T13:44:22.822Z,99035.19
2023-05-05T13:46:49.624Z,99043.50
2023-05-05T13:49:16.505Z,98995.47
2023-05-05T13:51:43.555Z,98997.13
2023-05-05T13:54:10.626Z,99038.63
2023-05-05T13:56:37.525Z,98991.78
2023-05-05T13:59:04.327Z,99025.56
2023-05-05T14:01:31.308Z,99018.91
2023-05-05T14:03:58.425Z,99004.22
2023-05-05T14:06:26.077Z,99008.66
2023-05-05T14:08:53.125Z,99007.28
2023-05-05T14:11:20.899Z,99015.06
2023-05-05T14:13:48.262Z,99007.06
2023-05-05T14:16:15.588Z,98974.69
2023-05-05T14:18:42.660Z,99010.38
2023-05-05T14:21:09.840Z,99007.47
2023-05-05T14:23:36.609Z,99006.50
2023-05-05T14:26:03.516Z,98999.41
2023-05-05T14:28:30.916Z,98977.28
2023-05-05T14:30:57.932Z,98998.44
2023-05-05T14:33:24.784Z,98997.00
2023-05-05T14:35:51.630Z,98949.94
2023-05-05T14:38:18.679Z,98987.38
2023-05-05T14:40:45.591Z,98988.66
2023-05-05T14:43:12.369Z,98957.38
2023-05-05T14:45:39.306Z,98954.00
2023-05-05T14:48:06.139Z,98985.91
2023-05-05T14:50:32.944Z,98990.59
2023-05-05T14:52:59.768Z,98963.94
2023-05-05T14:55:26.754Z,98994.66
2023-05-05T14:57:53.651Z,98994.03
2023-05-05T15:00:20.602Z,98979.38
2023-05-05T15:02:48.556Z,98951.75
2023-05-05T15:05:15.699Z,98966.78
2023-05-05T15:07:42.558Z,98983.16
2023-05-05T15:10:09.866Z,98957.31
2023-05-05T15:12:36.826Z,98966.97
2023-05-05T15:15:03.895Z,98969.13
2023-05-05T15:17:31.908Z,98981.72
2023-05-05T15:19:58.874Z,98976.63
2023-05-05T15:22:26.183Z,98983.91
2023-05-05T15:24:53.330Z,98974.84
2023-05-05T15:27:20.206Z,98944.44
2023-05-05T15:29:47.105Z,98951.47
2023-05-05T15:32:13.821Z,98981.56
2023-05-05T15:34:40.843Z,98965.31
2023-05-05T15:37:07.740Z,98938.44
2023-05-05T15:39:34.544Z,98976.06
2023-05-05T15:42:04.161Z,98978.06
2023-05-05T15:44:31.845Z,98977.44
2023-05-05T15:46:58.726Z,98940.38
2023-05-05T15:49:25.545Z,98976.56
2023-05-05T15:51:52.394Z,98967.81
2023-05-05T15:54:19.184Z,98971.28
2023-05-05T15:56:51.935Z,98951.88
2023-05-05T15:59:19.328Z,98918.47
2023-05-05T16:01:47.105Z,98965.78
2023-05-05T16:04:14.415Z,98956.66
2023-05-05T16:06:41.198Z,98963.09
2023-05-05T16:09:08.112Z,98947.03
2023-05-05T16:11:35.213Z,98938.16
2023-05-05T16:14:02.699Z,98959.03
2023-05-05T16:16:29.646Z,98947.13
2023-05-05T16:18:56.402Z,98914.06
2023-05-05T16:21:23.297Z,98923.59
2023-05-05T16:23:50.103Z,98946.44
2023-05-05T16:26:16.841Z,98942.19
2023-05-05T16:28:43.664Z,98950.56
2023-05-05T16:31:11.101Z,98937.47
2023-05-05T16:33:43.792Z,98934.59
2023-05-05T16:36:14.593Z,98903.94
2023-05-05T16:38:41.519Z,98937.38
2023-05-05T16:41:08.450Z,98927.78
2023-05-05T16:43:37.322Z,98931.16
2023-05-05T16:46:04.597Z,98897.25
2023-05-05T16:48:31.516Z,98892.94
2023-05-05T16:50:58.672Z,98931.31
2023-05-05T16:53:26.130Z,98942.53
2023-05-05T16:55:53.655Z,98914.06
2023-05-05T16:58:21.407Z,98928.00
2023-05-05T17:00:49.326Z,98936.47
2023-05-05T17:03:17.213Z,98901.06
2023-05-05T17:05:49.823Z,98894.47
2023-05-05T17:08:17.184Z,98916.66
2023-05-05T17:10:45.557Z,98934.28
2023-05-05T17:13:23.768Z,98884.28
2023-05-05T17:15:59.675Z,98906.09
2023-05-05T17:18:31.780Z,98872.09
2023-05-05T17:20:58.618Z,98942.84
2023-05-05T17:23:25.366Z,98936.88
2023-05-05T17:25:52.171Z,98946.78
2023-05-05T17:28:18.971Z,98950.22
2023-05-05T17:30:46.030Z,98938.09
2023-05-05T17:33:12.937Z,98909.91
2023-05-05T17:35:39.806Z,98872.03
2023-05-05T17:38:06.544Z,98937.13
2023-05-05T17:40:33.399Z,98962.97
2023-05-05T17:43:00.131Z,98952.34
2023-05-05T17:45:26.940Z,98928.38
2023-05-05T17:47:53.726Z,98952.66
2023-05-05T17:50:20.540Z,98950.56
2023-05-05T17:52:47.257Z,98949.56
2023-05-05T17:55:14.008Z,98955.63
2023-05-05T17:57:40.847Z,98949.75
2023-05-05T18:00:14.803Z,98948.50
2023-05-05T18:02:42.098Z,98962.34
2023-05-05T18:05:10.194Z,98961.69
2023-05-05T18:07:38.788Z,98959.09
2023-05-05T18:10:07.402Z,98951.97
2023-05-05T18:12:35.298Z,98957.56
2023-05-05T18:15:03.267Z,98916.97
2023-05-05T18:17:30.064Z,98961.09
2023-05-05T18:19:56.921Z,98968.81
2023-05-05T18:22:25.014Z,98941.50
2023-05-05T18:24:51.864Z,98944.41
2023-05-05T18:27:18.641Z,98958.38
2023-05-05T18:29:45.323Z,98942.63
2023-05-05T18:32:12.279Z,98947.09
2023-05-05T18:34:39.159Z,98963.06
2023-05-05T18:37:05.942Z,98976.00
2023-05-05T18:39:32.679Z,98971.16
2023-05-05T18:42:04.192Z,98966.09
2023-05-05T18:44:32.957Z,98970.28
2023-05-05T18:47:01.912Z,98952.25
2023-05-05T18:49:31.153Z,98964.47
2023-05-05T18:51:58.613Z,98948.16
2023-05-05T18:54:26.239Z,98957.59
2023-05-05T18:56:52.995Z,98959.25
2023-05-05T18:59:19.852Z,98928.03
2023-05-05T19:01:46.769Z,98928.22
2023-05-05T19:04:26.653Z,98961.53
2023-05-05T19:06:53.945Z,98953.78
2023-05-05T19:09:20.985Z,98931.16
2023-05-05T19:11:47.796Z,98906.84
2023-05-05T19:14:14.678Z,98957.88
2023-05-05T19:16:41.489Z,98965.94
2023-05-05T19:19:08.360Z,98927.69
2023-05-05T19:21:35.070Z,98912.94
2023-05-05T19:24:01.827Z,98963.25
2023-05-05T19:26:28.682Z,98959.06
2023-05-05T19:28:55.558Z,98965.41
2023-05-05T19:31:27.814Z,98957.75
2023-05-05T19:34:00.653Z,98959.25
2023-05-05T19:36:28.023Z,98950.50
2023-05-05T19:38:55.934Z,98954.16
2023-05-05T19:41:22.733Z,98936.69
2023-05-05T19:43:50.161Z,98945.84
2023-05-05T19:46:17.357Z,98942.66
2023-05-05T19:48:44.546Z,98938.94
2023-05-05T19:51:11.522Z,98926.84
2023-05-05T19:53:40.250Z,98939.63
2023-05-05T19:56:06.958Z,98906.34
2023-05-05T19:58:56.061Z,98901.06
2023-05-05T20:01:23.544Z,98924.31
2023-05-05T20:03:51.097Z,98874.78
2023-05-05T20:06:18.161Z,98913.34
2023-05-05T20:08:44.882Z,98920.03
2023-05-05T20:11:12.021Z,98914.72
2023-05-05T20:13:39.170Z,98912.78
2023-05-05T20:16:07.465Z,98917.13
2023-05-05T20:18:34.288Z,98903.44
2023-05-05T20:21:02.015Z,98914.78
2023-05-05T20:23:29.314Z,98914.78
2023-05-05T20:25:56.871Z,98898.50
2023-05-05T20:28:23.991Z,98917.78
2023-05-05T20:30:51.044Z,98902.38
2023-05-05T20:33:18.070Z,98920.09
2023-05-05T20:35:44.909Z,98919.03
2023-05-05T20:38:11.916Z,98913.38
2023-05-05T20:40:40.376Z,98924.81
2023-05-05T20:43:07.198Z,98911.22
2023-05-05T20:45:34.700Z,98933.06
2023-05-05T20:48:01.845Z,98919.91
2023-05-05T20:50:28.711Z,98902.16
2023-05-05T20:52:55.724Z,98911.50
2023-05-05T20:55:22.787Z,98912.91
2023-05-05T20:57:49.574Z,98903.16
2023-05-05T21:00:16.517Z,98904.84
2023-05-05T21:02:43.495Z,98902.50
2023-05-05T21:05:10.460Z,98906.53
2023-05-05T21:07:37.386Z,98919.16
2023-05-05T21:10:05.039Z,98924.75
2023-05-05T21:12:33.627Z,98933.31
2023-05-05T21:15:00.721Z,98929.50
2023-05-05T21:17:27.922Z,98936.09
2023-05-05T21:19:55.379Z,98917.44
2023-05-05T21:22:22.541Z,98933.06
2023-05-05T21:24:49.464Z,98916.28
2023-05-05T21:27:16.275Z,98914.69
2023-05-05T21:29:42.974Z,98923.75
2023-05-05T21:32:11.195Z,98909.03
2023-05-05T21:34:38.950Z,98920.31
2023-05-05T21:37:06.652Z,98919.75
2023-05-05T21:39:33.710Z,98928.44
2023-05-05T21:42:01.235Z,98930.13
2023-05-05T21:44:28.348Z,98917.84
2023-05-05T21:46:55.770Z,98917.00
2023-05-05T21:49:22.697Z,98923.56
2023-05-05T21:51:50.877Z,98929.31
2023-05-05T21:54:17.630Z,98908.13
2023-05-05T21:56:44.458Z,98904.94
2023-05-05T21:59:11.231Z,98912.16
2023-05-05T22:01:37.962Z,98918.69
2023-05-05T22:04:04.867Z,98888.06
2023-05-05T22:06:32.634Z,98905.53
2023-05-05T22:08:59.399Z,98911.16
2023-05-05T22:11:26.282Z,98909.66
2023-05-05T22:13:53.067Z,98896.34
2023-05-05T22:16:19.924Z,98903.41
2023-05-05T22:18:46.959Z,98895.31
2023-05-05T22:21:13.961Z,98905.25
2023-05-05T22:23:42.039Z,98904.59
2023-05-05T22:26:09.411Z,98902.94
2023-05-05T22:28:36.594Z,98896.16
2023-05-05T22:31:03.344Z,98895.16
2023-05-05T22:33:30.435Z,98898.88
2023-05-05T22:35:57.381Z,98903.75
2023-05-05T22:38:24.213Z,98914.19
2023-05-05T22:40:50.973Z,98887.94
2023-05-05T22:43:17.805Z,98898.19
2023-05-05T22:45:44.672Z,98888.59
2023-05-05T22:48:11.479Z,98894.84
2023-05-05T22:50:38.395Z,98877.81
2023-05-05T22:53:05.164Z,98896.09
2023-05-05T22:55:31.989Z,98905.53
2023-05-05T22:57:58.716Z,98896.16
2023-05-05T23:03:33.894Z,98886.06
2023-05-05T23:06:00.657Z,98904.94
2023-05-05T23:08:27.342Z,98899.72
2023-05-05T23:10:54.191Z,98916.38
2023-05-05T23:13:21.165Z,98890.16
2023-05-05T23:15:47.893Z,98931.38
2023-05-05T23:18:14.771Z,98987.31
2023-05-05T23:20:41.479Z,99087.75
2023-05-05T23:23:08.324Z,99097.47
2023-05-05T23:25:35.082Z,99039.84
2023-05-05T23:28:01.873Z,99025.19
2023-05-05T23:30:28.760Z,99062.06
2023-05-05T23:32:57.605Z,99040.75
2023-05-05T23:35:24.470Z,99042.56
2023-05-05T23:37:51.204Z,99052.97
2023-05-05T23:40:18.145Z,99054.53
2023-05-05T23:42:44.813Z,99065.88
2023-05-05T23:45:11.776Z,99059.47
2023-05-05T23:47:38.844Z,99077.81
2023-05-05T23:50:06.226Z,99090.63
2023-05-05T23:52:32.931Z,99083.59
2023-05-05T23:54:59.639Z,99103.59
2023-05-05T23:57:26.536Z,99075.97
2023-05-05T23:59:53.240Z,99058.44
